createdAt,value
2022-08-08T00:00:56.638Z,100.00
2022-08-08T00:03:28.456Z,100.00
2022-08-08T00:06:35.217Z,100.00
2022-08-08T00:09:16.713Z,100.00
2022-08-08T00:12:07.117Z,100.00
2022-08-08T00:14:56.894Z,100.00
2022-08-08T00:17:35.234Z,100.00
2022-08-08T00:20:30.589Z,100.00
2022-08-08T00:23:02.637Z,100.00
2022-08-08T00:25:46.764Z,100.00
2022-08-08T00:28:35.266Z,100.00
2022-08-08T00:32:15.497Z,100.00
2022-08-08T00:34:46.245Z,100.00
2022-08-08T00:37:47.370Z,100.00
2022-08-08T00:41:13.013Z,100.00
2022-08-08T00:43:41.073Z,100.00
2022-08-08T00:46:24.162Z,100.00
2022-08-08T00:49:22.106Z,100.00
2022-08-08T00:52:07.850Z,100.00
2022-08-08T00:54:53.289Z,100.00
2022-08-08T00:57:58.928Z,100.00
2022-08-08T01:00:31.192Z,100.00
2022-08-08T01:04:02.804Z,100.00
2022-08-08T01:06:27.077Z,100.00
2022-08-08T01:09:35.831Z,100.00
2022-08-08T01:12:44.201Z,100.00
2022-08-08T01:15:47.169Z,100.00
2022-08-08T01:18:53.356Z,100.00
2022-08-08T01:22:09.769Z,100.00
2022-08-08T01:24:54.331Z,100.00
2022-08-08T01:27:44.170Z,100.00
2022-08-08T01:30:53.585Z,100.00
2022-08-08T01:33:53.925Z,100.00
2022-08-08T01:36:48.484Z,100.00
2022-08-08T01:39:53.720Z,100.00
2022-08-08T01:42:53.487Z,100.00
2022-08-08T01:45:37.614Z,100.00
2022-08-08T01:48:30.962Z,100.00
2022-08-08T01:51:32.037Z,100.00
2022-08-08T01:55:27.052Z,100.00
2022-08-08T01:58:11.767Z,100.00
2022-08-08T02:01:20.428Z,100.00
2022-08-08T02:04:01.822Z,100.00
2022-08-08T02:06:54.760Z,100.00
2022-08-08T02:10:01.498Z,100.00
2022-08-08T02:12:37.604Z,100.00
2022-08-08T02:15:40.353Z,100.00
2022-08-08T02:18:10.833Z,100.00
2022-08-08T02:21:08.578Z,100.00
2022-08-08T02:23:48.525Z,100.00
2022-08-08T02:26:29.408Z,100.00
2022-08-08T02:29:18.928Z,100.00
2022-08-08T02:32:22.571Z,100.00
2022-08-08T02:35:10.885Z,100.00
2022-08-08T02:38:16.153Z,100.00
2022-08-08T02:41:59.589Z,100.00
2022-08-08T02:44:38.151Z,100.00
2022-08-08T02:47:17.238Z,100.00
2022-08-08T02:49:50.857Z,100.00
2022-08-08T02:52:50.811Z,100.00
2022-08-08T02:55:40.185Z,100.00
2022-08-08T02:58:16.599Z,100.00
2022-08-08T03:01:05.154Z,100.00
2022-08-08T03:05:03.695Z,100.00
2022-08-08T03:07:19.524Z,94.44
2022-08-08T03:10:32.857Z,85.18
2022-08-08T03:13:34.111Z,79.25
2022-08-08T03:16:11.955Z,73.01
2022-08-08T03:18:54.727Z,69.08
2022-08-08T03:21:27.088Z,64.56
2022-08-08T03:24:09.000Z,61.45
2022-08-08T03:26:42.425Z,59.51
2022-08-08T03:29:20.804Z,60.15
2022-08-08T03:32:28.772Z,57.54
2022-08-08T03:34:56.877Z,55.25
2022-08-08T03:38:54.116Z,53.57
2022-08-08T03:40:29.960Z,53.42
2022-08-08T03:43:18.152Z,53.12
2022-08-08T03:46:06.015Z,50.73
2022-08-08T03:49:08.881Z,49.92
2022-08-08T03:51:39.995Z,48.13
2022-08-08T03:54:09.901Z,46.13
2022-08-08T03:56:46.382Z,44.06
2022-08-08T03:59:22.674Z,42.86
2022-08-08T04:02:23.002Z,42.92
2022-08-08T04:04:39.992Z,42.83
2022-08-08T04:07:09.468Z,41.80
2022-08-08T04:09:59.433Z,39.65
2022-08-08T04:12:26.223Z,39.16
2022-08-08T04:14:57.679Z,38.12
2022-08-08T04:17:58.495Z,36.83
2022-08-08T04:20:13.181Z,37.71
2022-08-08T04:22:44.091Z,39.27
2022-08-08T04:25:15.468Z,40.47
2022-08-08T04:28:02.600Z,38.27
2022-08-08T04:30:39.815Z,36.22
2022-08-08T04:33:12.410Z,35.52
2022-08-08T04:35:50.862Z,36.88
2022-08-08T04:38:21.997Z,36.75
2022-08-08T04:40:51.413Z,37.74
2022-08-08T04:43:31.768Z,37.60
2022-08-08T04:46:14.766Z,35.16
2022-08-08T04:48:43.661Z,33.83
2022-08-08T04:51:17.484Z,33.57
2022-08-08T04:54:37.405Z,33.70
2022-08-08T04:56:41.685Z,33.99
2022-08-08T04:59:12.816Z,34.12
2022-08-08T05:01:48.131Z,33.82
2022-08-08T05:04:16.453Z,34.41
2022-08-08T05:06:50.519Z,33.85
2022-08-08T05:09:20.682Z,34.43
2022-08-08T05:11:57.095Z,34.74
2022-08-08T05:14:26.144Z,34.31
2022-08-08T05:17:01.398Z,34.93
2022-08-08T05:20:10.985Z,34.31
2022-08-08T05:22:17.535Z,33.48
2022-08-08T05:24:48.255Z,32.75
2022-08-08T05:27:18.490Z,32.17
2022-08-08T05:29:50.249Z,31.57
2022-08-08T05:32:24.627Z,31.64
2022-08-08T05:34:59.577Z,31.21
2022-08-08T05:37:51.976Z,31.50
2022-08-08T05:40:27.580Z,33.36
2022-08-08T05:43:17.077Z,33.75
2022-08-08T05:46:08.027Z,34.92
2022-08-08T05:48:38.022Z,35.04
2022-08-08T05:51:15.200Z,35.25
2022-08-08T05:54:26.149Z,35.10
2022-08-08T05:56:42.198Z,35.27
2022-08-08T06:00:00.956Z,34.41
2022-08-08T06:02:44.099Z,33.04
2022-08-08T06:05:34.005Z,31.09
2022-08-08T06:08:10.237Z,30.73
2022-08-08T06:11:01.757Z,31.09
2022-08-08T06:13:35.719Z,30.42
2022-08-08T06:16:19.131Z,29.74
2022-08-08T06:18:55.752Z,29.99
2022-08-08T06:21:32.811Z,28.99
2022-08-08T06:24:23.142Z,29.06
2022-08-08T06:27:04.744Z,28.66
2022-08-08T06:30:00.760Z,29.50
2022-08-08T06:32:31.373Z,31.18
2022-08-08T06:36:03.781Z,32.01
2022-08-08T06:38:01.634Z,31.79
2022-08-08T06:40:31.949Z,32.04
2022-08-08T06:43:06.334Z,32.29
2022-08-08T06:45:39.252Z,31.59
2022-08-08T06:48:07.088Z,30.98
2022-08-08T06:50:39.872Z,31.28
2022-08-08T06:53:17.261Z,31.86
2022-08-08T06:56:02.397Z,31.38
2022-08-08T06:58:33.693Z,32.67
2022-08-08T07:01:11.722Z,32.98
2022-08-08T07:04:40.056Z,36.73
2022-08-08T07:06:56.295Z,40.04
2022-08-08T07:09:45.609Z,44.33
2022-08-08T07:12:34.558Z,48.41
2022-08-08T07:15:09.152Z,52.49
2022-08-08T07:18:34.989Z,57.05
2022-08-08T07:21:05.306Z,59.73
2022-08-08T07:24:06.192Z,60.98
2022-08-08T07:26:39.014Z,61.01
2022-08-08T07:29:11.705Z,61.59
2022-08-08T07:31:52.349Z,61.61
2022-08-08T07:34:32.520Z,62.38
2022-08-08T07:37:11.826Z,61.73
2022-08-08T07:39:56.260Z,61.09
2022-08-08T07:42:33.483Z,60.70
2022-08-08T07:45:03.157Z,60.04
2022-08-08T07:47:38.524Z,60.93
2022-08-08T07:50:07.629Z,61.87
2022-08-08T07:52:36.474Z,61.91
2022-08-08T07:55:17.422Z,60.77
2022-08-08T07:58:02.059Z,59.51
2022-08-08T08:00:39.779Z,56.11
2022-08-08T08:03:20.709Z,53.90
2022-08-08T08:05:53.353Z,56.54
2022-08-08T08:08:28.266Z,58.32
2022-08-08T08:11:01.666Z,56.11
2022-08-08T08:14:08.372Z,54.57
2022-08-08T08:16:32.446Z,52.79
2022-08-08T08:19:02.798Z,53.86
2022-08-08T08:21:52.810Z,52.31
2022-08-08T08:24:32.604Z,56.04
2022-08-08T08:27:04.939Z,55.34
2022-08-08T08:29:51.079Z,56.50
2022-08-08T08:32:32.064Z,54.97
2022-08-08T08:35:05.322Z,54.46
2022-08-08T08:37:59.160Z,57.35
2022-08-08T08:40:25.913Z,53.16
2022-08-08T08:42:58.551Z,49.30
2022-08-08T08:45:32.486Z,47.96
2022-08-08T08:48:19.517Z,48.29
2022-08-08T08:50:53.095Z,47.84
2022-08-08T08:53:28.220Z,47.46
2022-08-08T08:56:25.933Z,47.77
2022-08-08T08:59:03.981Z,46.06
2022-08-08T09:01:45.645Z,45.86
2022-08-08T09:04:38.697Z,45.52
2022-08-08T09:07:13.808Z,45.12
2022-08-08T09:09:57.239Z,45.47
2022-08-08T09:12:27.573Z,45.42
2022-08-08T09:15:00.301Z,47.03
2022-08-08T09:17:40.785Z,47.19
2022-08-08T09:21:57.377Z,47.38
2022-08-08T09:22:59.206Z,48.67
2022-08-08T09:25:54.627Z,48.70
2022-08-08T09:28:37.875Z,48.85
2022-08-08T09:31:15.105Z,46.50
2022-08-08T09:34:28.453Z,44.81
2022-08-08T09:37:28.534Z,41.86
2022-08-08T09:40:01.087Z,42.90
2022-08-08T09:42:51.626Z,42.80
2022-08-08T09:46:02.006Z,42.67
2022-08-08T09:48:21.070Z,42.63
2022-08-08T09:50:55.855Z,42.56
2022-08-08T09:53:59.069Z,43.30
2022-08-08T09:56:47.352Z,43.38
2022-08-08T10:00:02.454Z,43.92
2022-08-08T10:02:29.324Z,44.08
2022-08-08T10:05:15.155Z,44.21
2022-08-08T10:08:00.749Z,44.18
2022-08-08T10:10:38.819Z,44.30
2022-08-08T10:13:19.493Z,43.16
2022-08-08T10:16:01.551Z,43.62
2022-08-08T10:18:33.536Z,40.29
2022-08-08T10:21:22.627Z,42.08
2022-08-08T10:24:00.015Z,40.83
2022-08-08T10:26:59.528Z,40.53
2022-08-08T10:29:58.740Z,39.71
2022-08-08T10:32:37.747Z,39.37
2022-08-08T10:35:10.600Z,38.34
2022-08-08T10:38:05.335Z,39.35
2022-08-08T10:40:33.696Z,40.21
2022-08-08T10:43:09.913Z,38.82
2022-08-08T10:45:57.112Z,38.34
2022-08-08T10:48:56.155Z,38.06
2022-08-08T10:51:31.404Z,37.87
2022-08-08T10:54:10.477Z,38.05
2022-08-08T10:56:43.277Z,38.51
2022-08-08T10:59:17.262Z,38.47
2022-08-08T11:01:54.847Z,37.38
2022-08-08T11:04:39.292Z,36.67
2022-08-08T11:07:14.990Z,36.35
2022-08-08T11:10:10.963Z,36.41
2022-08-08T11:13:06.637Z,37.16
2022-08-08T11:16:32.966Z,35.11
2022-08-08T11:19:17.264Z,35.34
2022-08-08T11:21:54.179Z,35.32
2022-08-08T11:24:29.075Z,35.55
2022-08-08T11:27:03.006Z,35.61
2022-08-08T11:30:04.210Z,35.19
2022-08-08T11:32:32.186Z,33.51
2022-08-08T11:35:27.662Z,34.12
2022-08-08T11:38:35.293Z,33.62
2022-08-08T11:40:52.445Z,34.74
2022-08-08T11:43:25.843Z,35.63
2022-08-08T11:46:18.069Z,34.87
2022-08-08T11:48:47.735Z,32.34
2022-08-08T11:51:29.606Z,31.20
2022-08-08T11:54:38.414Z,29.71
2022-08-08T11:57:30.161Z,29.72
2022-08-08T12:00:10.556Z,29.65
2022-08-08T12:03:01.056Z,29.18
2022-08-08T12:05:41.160Z,30.09
2022-08-08T12:08:12.205Z,29.24
2022-08-08T12:10:51.525Z,28.76
2022-08-08T12:13:38.257Z,28.07
2022-08-08T12:16:30.313Z,27.86
2022-08-08T12:21:59.467Z,29.29
2022-08-08T12:27:45.749Z,28.57
2022-08-08T12:30:34.337Z,28.99
2022-08-08T12:33:07.791Z,29.12
2022-08-08T12:35:40.694Z,27.56
2022-08-08T12:38:31.108Z,27.80
2022-08-08T12:41:18.301Z,27.03
2022-08-08T12:44:34.525Z,27.45
2022-08-08T12:47:09.029Z,27.17
2022-08-08T12:49:46.409Z,27.33
2022-08-08T12:52:29.063Z,27.60
2022-08-08T12:55:15.791Z,27.62
2022-08-08T12:58:15.889Z,26.69
2022-08-08T13:00:53.095Z,26.38
2022-08-08T13:03:33.616Z,25.62
2022-08-08T13:06:20.244Z,25.85
2022-08-08T13:08:56.324Z,25.23
2022-08-08T13:12:19.749Z,24.53
2022-08-08T13:14:39.799Z,24.03
2022-08-08T13:18:10.107Z,24.24
2022-08-08T13:20:27.559Z,25.13
2022-08-08T13:23:31.267Z,25.82
2022-08-08T13:26:18.498Z,25.90
2022-08-08T13:28:49.596Z,25.66
2022-08-08T13:31:17.430Z,26.00
2022-08-08T13:33:49.844Z,25.32
2022-08-08T13:36:25.905Z,26.17
2022-08-08T13:39:00.213Z,26.21
2022-08-08T13:41:39.443Z,25.14
2022-08-08T13:44:14.268Z,25.11
2022-08-08T13:46:57.100Z,25.00
2022-08-08T13:50:36.958Z,24.03
2022-08-08T13:52:37.888Z,23.47
2022-08-08T13:55:09.326Z,23.16
2022-08-08T13:58:06.805Z,24.06
2022-08-08T14:00:51.081Z,24.18
2022-08-08T14:03:52.939Z,25.21
2022-08-08T14:06:32.449Z,27.00
2022-08-08T14:09:24.814Z,26.84
2022-08-08T14:11:54.417Z,25.23
2022-08-08T14:14:26.975Z,25.54
2022-08-08T14:17:00.799Z,24.50
2022-08-08T14:19:58.058Z,24.52
2022-08-08T14:22:53.192Z,23.76
2022-08-08T14:25:28.810Z,23.79
2022-08-08T14:28:10.535Z,23.92
2022-08-08T14:30:53.553Z,24.54
2022-08-08T14:33:34.044Z,25.07
2022-08-08T14:36:18.194Z,25.02
2022-08-08T14:38:51.577Z,25.31
2022-08-08T14:41:45.395Z,25.32
2022-08-08T14:44:21.110Z,24.90
2022-08-08T14:47:00.399Z,25.47
2022-08-08T14:49:51.356Z,24.67
2022-08-08T14:52:25.349Z,25.21
2022-08-08T14:54:54.294Z,25.47
2022-08-08T14:58:03.176Z,26.16
2022-08-08T15:00:13.861Z,26.09
2022-08-08T15:02:58.658Z,26.17
2022-08-08T15:08:35.107Z,25.90
2022-08-08T15:11:19.053Z,25.86
2022-08-08T15:14:00.652Z,25.30
2022-08-08T15:16:35.040Z,25.53
2022-08-08T15:19:04.819Z,25.47
2022-08-08T15:21:32.821Z,26.45
2022-08-08T15:24:02.741Z,27.03
2022-08-08T15:26:31.525Z,26.89
2022-08-08T15:29:01.084Z,26.71
2022-08-08T15:32:03.167Z,26.37
2022-08-08T15:34:31.787Z,26.91
2022-08-08T15:39:48.175Z,27.29
2022-08-08T15:42:31.944Z,27.72
2022-08-08T15:45:04.292Z,28.50
2022-08-08T15:47:34.038Z,28.78
2022-08-08T15:50:16.840Z,29.18
2022-08-08T15:52:52.001Z,30.25
2022-08-08T15:55:22.723Z,30.99
2022-08-08T16:00:50.310Z,33.42
2022-08-08T16:03:18.584Z,34.35
2022-08-08T16:06:01.317Z,35.27
2022-08-08T16:08:33.561Z,36.12
2022-08-08T16:13:09.721Z,37.02
2022-08-08T16:14:07.804Z,38.50
2022-08-08T16:16:46.963Z,39.02
2022-08-08T16:19:23.408Z,38.00
2022-08-08T16:21:54.035Z,38.14
2022-08-08T16:24:23.095Z,37.82
2022-08-08T16:26:52.565Z,37.77
2022-08-08T16:29:37.101Z,37.74
2022-08-08T16:32:13.060Z,38.95
2022-08-08T16:34:47.866Z,39.29
2022-08-08T16:37:16.215Z,40.52
2022-08-08T16:40:00.446Z,40.58
2022-08-08T16:42:34.931Z,42.03
2022-08-08T16:45:11.351Z,43.35
2022-08-08T16:47:56.290Z,44.34
2022-08-08T16:50:24.418Z,47.28
2022-08-08T16:55:23.002Z,49.56
2022-08-08T16:55:55.594Z,51.74
2022-08-08T16:58:33.213Z,53.52
2022-08-08T17:01:16.644Z,55.43
2022-08-08T17:04:01.173Z,56.52
2022-08-08T17:06:43.424Z,57.34
2022-08-08T17:09:23.136Z,59.32
2022-08-08T17:11:56.603Z,58.28
2022-08-08T17:14:34.419Z,57.99
2022-08-08T17:17:41.327Z,60.27
2022-08-08T17:20:04.768Z,62.55
2022-08-08T17:22:57.277Z,62.34
2022-08-08T17:25:47.573Z,62.03
2022-08-08T17:28:34.177Z,62.33
2022-08-08T17:31:39.188Z,62.47
2022-08-08T17:34:37.190Z,64.87
2022-08-08T17:37:02.966Z,65.32
2022-08-08T17:40:03.781Z,67.55
2022-08-08T17:42:36.285Z,67.76
2022-08-08T17:45:06.351Z,68.11
2022-08-08T17:47:45.183Z,68.82
2022-08-08T17:50:34.503Z,69.83
2022-08-08T17:53:02.576Z,71.57
2022-08-08T17:56:06.972Z,72.88
2022-08-08T17:58:22.995Z,74.38
2022-08-08T18:00:58.518Z,75.79
2022-08-08T18:03:26.278Z,77.81
2022-08-08T18:05:54.880Z,78.85
2022-08-08T18:08:40.823Z,80.25
2022-08-08T18:11:23.312Z,82.13
2022-08-08T18:13:52.813Z,83.30
2022-08-08T18:16:27.031Z,83.63
2022-08-08T18:19:06.221Z,83.99
2022-08-08T18:22:01.348Z,85.39
2022-08-08T18:24:31.402Z,87.43
2022-08-08T18:27:06.142Z,88.31
2022-08-08T18:29:48.641Z,90.13
2022-08-08T18:32:19.693Z,92.91
2022-08-08T18:34:51.632Z,93.57
2022-08-08T18:37:34.962Z,94.88
2022-08-08T18:43:14.768Z,96.41
2022-08-08T18:46:55.906Z,96.96
2022-08-08T18:49:05.463Z,96.75
2022-08-08T18:52:51.844Z,97.73
2022-08-08T18:55:29.587Z,98.52
2022-08-08T18:58:01.965Z,98.53
2022-08-08T19:00:39.305Z,99.24
2022-08-08T19:06:39.226Z,100.00
2022-08-08T19:09:48.252Z,100.00
2022-08-08T19:12:53.459Z,100.00
2022-08-08T21:42:28.663Z,100.00
2022-08-08T21:44:58.700Z,100.00
2022-08-08T21:48:21.657Z,100.00
2022-08-08T21:50:16.066Z,100.00
2022-08-08T21:54:36.811Z,100.00
2022-08-08T21:56:19.396Z,100.00
2022-08-08T21:58:19.685Z,100.00
2022-08-08T22:00:55.975Z,100.00
2022-08-08T22:03:24.603Z,100.00
2022-08-08T22:05:52.111Z,100.00
2022-08-08T22:08:27.214Z,100.00
2022-08-08T22:11:22.579Z,100.00
2022-08-08T22:14:01.698Z,100.00
2022-08-08T22:16:29.312Z,100.00
2022-08-08T22:19:00.969Z,100.00
2022-08-08T22:21:36.769Z,100.00
2022-08-08T22:24:05.519Z,100.00
2022-08-08T22:26:33.051Z,100.00
2022-08-08T22:29:04.611Z,100.00
2022-08-08T22:31:43.972Z,100.00
2022-08-08T22:34:27.180Z,100.00
2022-08-08T22:36:54.832Z,100.00
2022-08-08T22:39:22.387Z,100.00
2022-08-08T22:41:55.890Z,100.00
2022-08-08T22:44:24.980Z,100.00
2022-08-08T22:46:58.282Z,100.00
2022-08-08T22:49:25.731Z,100.00
2022-08-08T22:51:54.011Z,100.00
2022-08-08T22:54:32.761Z,100.00
2022-08-08T22:57:17.978Z,100.00
2022-08-08T22:59:59.648Z,100.00
2022-08-08T23:02:29.101Z,100.00
2022-08-08T23:04:57.764Z,100.00
2022-08-08T23:07:57.493Z,100.00
2022-08-08T23:10:19.759Z,100.00
2022-08-08T23:12:51.559Z,100.00
2022-08-08T23:16:39.817Z,100.00
2022-08-08T23:18:12.014Z,100.00
2022-08-08T23:20:44.084Z,100.00
2022-08-08T23:23:12.701Z,100.00
2022-08-08T23:25:47.820Z,100.00
2022-08-08T23:28:18.177Z,100.00
2022-08-08T23:30:47.644Z,100.00
2022-08-08T23:33:21.070Z,100.00
2022-08-08T23:36:08.031Z,100.00
2022-08-08T23:38:44.073Z,100.00
2022-08-08T23:41:22.946Z,100.00
2022-08-08T23:43:56.497Z,100.00
2022-08-08T23:49:03.603Z,100.00
2022-08-08T23:49:18.162Z,100.00
2022-08-08T23:52:05.300Z,100.00
2022-08-08T23:54:43.130Z,100.00
2022-08-08T23:57:26.540Z,100.00
